sensor_id;sensor_type;location;lat;lon;timestamp;pressure;altitude;pressure_sealevel;temperature;humidity
74621;BME280;64861;47.546;19.254;2023-02-11T00:01:30;101127.41;;;20.80;39.71
74621;BME280;64861;47.546;19.254;2023-02-11T00:03:57;101124.00;;;20.78;39.65
74621;BME280;64861;47.546;19.254;2023-02-11T00:06:24;101124.84;;;20.79;39.70
74621;BME280;64861;47.546;19.254;2023-02-11T00:08:50;101112.53;;;20.78;39.85
74621;BME280;64861;47.546;19.254;2023-02-11T00:11:18;101120.03;;;20.84;39.56
74621;BME280;64861;47.546;19.254;2023-02-11T00:13:45;101123.78;;;20.81;39.41
74621;BME280;64861;47.546;19.254;2023-02-11T00:16:13;101114.22;;;20.79;39.47
74621;BME280;64861;47.546;19.254;2023-02-11T00:18:39;101118.09;;;20.75;39.56
74621;BME280;64861;47.546;19.254;2023-02-11T00:21:10;101107.09;;;20.79;39.65
74621;BME280;64861;47.546;19.254;2023-02-11T00:23:37;101101.06;;;20.77;39.59
74621;BME280;64861;47.546;19.254;2023-02-11T00:26:03;101100.47;;;20.74;39.54
74621;BME280;64861;47.546;19.254;2023-02-11T00:28:28;101109.28;;;20.74;39.37
74621;BME280;64861;47.546;19.254;2023-02-11T00:30:57;101110.84;;;20.77;39.65
74621;BME280;64861;47.546;19.254;2023-02-11T00:33:23;101107.47;;;20.75;39.43
74621;BME280;64861;47.546;19.254;2023-02-11T00:35:48;101100.94;;;20.79;39.61
74621;BME280;64861;47.546;19.254;2023-02-11T00:38:14;101110.97;;;20.75;39.52
74621;BME280;64861;47.546;19.254;2023-02-11T00:40:40;101103.13;;;20.74;39.70
74621;BME280;64861;47.546;19.254;2023-02-11T00:43:05;101110.63;;;20.80;39.35
74621;BME280;64861;47.546;19.254;2023-02-11T00:45:31;101107.59;;;20.73;39.62
74621;BME280;64861;47.546;19.254;2023-02-11T00:47:56;101111.69;;;20.77;39.40
74621;BME280;64861;47.546;19.254;2023-02-11T00:50:22;101104.94;;;20.73;39.43
74621;BME280;64861;47.546;19.254;2023-02-11T00:52:47;101105.78;;;20.74;39.59
74621;BME280;64861;47.546;19.254;2023-02-11T00:55:13;101093.72;;;20.70;39.47
74621;BME280;64861;47.546;19.254;2023-02-11T00:57:39;101099.63;;;20.73;39.61
74621;BME280;64861;47.546;19.254;2023-02-11T01:00:06;101095.16;;;20.74;39.55
74621;BME280;64861;47.546;19.254;2023-02-11T01:02:32;101085.97;;;20.67;39.66
74621;BME280;64861;47.546;19.254;2023-02-11T01:04:58;101077.50;;;20.73;39.74
74621;BME280;64861;47.546;19.254;2023-02-11T01:07:25;101075.47;;;20.76;39.66
74621;BME280;64861;47.546;19.254;2023-02-11T01:09:50;101065.31;;;20.70;39.47
74621;BME280;64861;47.546;19.254;2023-02-11T01:12:16;101064.09;;;20.74;39.36
74621;BME280;64861;47.546;19.254;2023-02-11T01:14:41;101061.09;;;20.68;39.68
74621;BME280;64861;47.546;19.254;2023-02-11T01:17:07;101066.16;;;20.71;39.46
74621;BME280;64861;47.546;19.254;2023-02-11T01:19:32;101061.94;;;20.68;39.76
74621;BME280;64861;47.546;19.254;2023-02-11T01:21:58;101059.78;;;20.73;39.41
74621;BME280;64861;47.546;19.254;2023-02-11T01:24:23;101050.47;;;20.68;39.56
74621;BME280;64861;47.546;19.254;2023-02-11T01:26:49;101051.78;;;20.73;39.57
74621;BME280;64861;47.546;19.254;2023-02-11T01:29:14;101051.66;;;20.75;39.58
74621;BME280;64861;47.546;19.254;2023-02-11T01:31:40;101056.38;;;20.71;39.59
74621;BME280;64861;47.546;19.254;2023-02-11T01:34:05;101043.81;;;20.73;39.49
74621;BME280;64861;47.546;19.254;2023-02-11T01:36:31;101048.25;;;20.73;39.54
74621;BME280;64861;47.546;19.254;2023-02-11T01:38:56;101046.34;;;20.75;39.39
74621;BME280;64861;47.546;19.254;2023-02-11T01:41:21;101043.09;;;20.71;39.49
74621;BME280;64861;47.546;19.254;2023-02-11T01:43:48;101043.94;;;20.72;39.37
74621;BME280;64861;47.546;19.254;2023-02-11T01:46:34;101049.97;;;20.74;39.20
74621;BME280;64861;47.546;19.254;2023-02-11T01:49:07;101044.06;;;20.70;39.43
74621;BME280;64861;47.546;19.254;2023-02-11T01:51:53;101053.47;;;20.74;39.30
74621;BME280;64861;47.546;19.254;2023-02-11T01:54:24;101045.75;;;20.71;39.32
74621;BME280;64861;47.546;19.254;2023-02-11T01:57:10;101050.22;;;20.71;39.16
74621;BME280;64861;47.546;19.254;2023-02-11T02:07:53;101035.72;;;20.63;39.48
74621;BME280;64861;47.546;19.254;2023-02-11T02:10:23;101036.66;;;20.62;39.56
74621;BME280;64861;47.546;19.254;2023-02-11T02:12:49;101039.59;;;20.71;39.24
74621;BME280;64861;47.546;19.254;2023-02-11T02:18:08;101038.50;;;20.62;39.40
74621;BME280;64861;47.546;19.254;2023-02-11T02:23:25;101028.00;;;20.60;39.54
74621;BME280;64861;47.546;19.254;2023-02-11T02:38:20;101024.13;;;20.64;39.45
74621;BME280;64861;47.546;19.254;2023-02-11T02:40:56;101021.97;;;20.70;39.24
74621;BME280;64861;47.546;19.254;2023-02-11T02:43:25;101019.91;;;20.62;39.24
74621;BME280;64861;47.546;19.254;2023-02-11T02:45:51;101021.59;;;20.63;39.24
74621;BME280;64861;47.546;19.254;2023-02-11T02:53:43;101022.22;;;20.67;39.22
74621;BME280;64861;47.546;19.254;2023-02-11T02:56:27;101020.50;;;20.65;39.26
74621;BME280;64861;47.546;19.254;2023-02-11T02:59:07;101019.06;;;20.61;39.45
74621;BME280;64861;47.546;19.254;2023-02-11T03:10:11;101010.09;;;20.62;39.20
74621;BME280;64861;47.546;19.254;2023-02-11T03:12:40;101004.94;;;20.61;39.31
74621;BME280;64861;47.546;19.254;2023-02-11T03:15:07;100999.38;;;20.64;39.36
74621;BME280;64861;47.546;19.254;2023-02-11T03:17:34;101004.19;;;20.59;39.29
74621;BME280;64861;47.546;19.254;2023-02-11T03:20:02;100999.13;;;20.56;39.52
74621;BME280;64861;47.546;19.254;2023-02-11T03:22:55;100991.50;;;20.62;39.25
74621;BME280;64861;47.546;19.254;2023-02-11T03:25:31;100993.22;;;20.63;39.09
74621;BME280;64861;47.546;19.254;2023-02-11T03:28:34;100993.31;;;20.62;39.25
74621;BME280;64861;47.546;19.254;2023-02-11T03:31:10;100994.41;;;20.59;39.09
74621;BME280;64861;47.546;19.254;2023-02-11T03:36:35;100981.25;;;20.58;39.30
74621;BME280;64861;47.546;19.254;2023-02-11T03:39:03;100980.28;;;20.59;39.14
74621;BME280;64861;47.546;19.254;2023-02-11T03:41:30;100976.78;;;20.58;39.08
74621;BME280;64861;47.546;19.254;2023-02-11T03:43:58;100969.91;;;20.56;39.26
74621;BME280;64861;47.546;19.254;2023-02-11T03:46:35;100967.97;;;20.58;39.27
74621;BME280;64861;47.546;19.254;2023-02-11T03:49:04;100968.22;;;20.55;39.23
74621;BME280;64861;47.546;19.254;2023-02-11T03:51:32;100956.50;;;20.57;39.20
74621;BME280;64861;47.546;19.254;2023-02-11T03:53:59;100948.16;;;20.62;39.43
74621;BME280;64861;47.546;19.254;2023-02-11T03:56:29;100947.09;;;20.64;39.06
74621;BME280;64861;47.546;19.254;2023-02-11T03:58:57;100945.66;;;20.60;39.34
74621;BME280;64861;47.546;19.254;2023-02-11T04:01:22;100942.41;;;20.57;39.12
74621;BME280;64861;47.546;19.254;2023-02-11T04:03:48;100934.53;;;20.55;39.23
74621;BME280;64861;47.546;19.254;2023-02-11T04:06:13;100926.69;;;20.54;39.39
74621;BME280;64861;47.546;19.254;2023-02-11T04:08:39;100933.59;;;20.56;39.05
74621;BME280;64861;47.546;19.254;2023-02-11T04:11:04;100922.31;;;20.53;39.23
74621;BME280;64861;47.546;19.254;2023-02-11T04:13:30;100916.66;;;20.57;39.40
74621;BME280;64861;47.546;19.254;2023-02-11T04:15:55;100922.97;;;20.56;39.05
74621;BME280;64861;47.546;19.254;2023-02-11T04:18:21;100916.53;;;20.48;39.29
74621;BME280;64861;47.546;19.254;2023-02-11T04:20:47;100919.66;;;20.53;39.22
74621;BME280;64861;47.546;19.254;2023-02-11T04:23:13;100911.47;;;20.56;39.28
74621;BME280;64861;47.546;19.254;2023-02-11T04:25:38;100912.19;;;20.58;38.86
74621;BME280;64861;47.546;19.254;2023-02-11T04:28:04;100910.88;;;20.52;39.05
74621;BME280;64861;47.546;19.254;2023-02-11T04:30:29;100908.09;;;20.54;39.11
74621;BME280;64861;47.546;19.254;2023-02-11T04:32:56;100916.06;;;20.54;38.97
74621;BME280;64861;47.546;19.254;2023-02-11T04:35:22;100911.22;;;20.59;39.10
74621;BME280;64861;47.546;19.254;2023-02-11T04:37:47;100917.13;;;20.62;39.09
74621;BME280;64861;47.546;19.254;2023-02-11T04:40:13;100919.44;;;20.56;39.09
74621;BME280;64861;47.546;19.254;2023-02-11T04:42:39;100915.22;;;20.53;39.20
74621;BME280;64861;47.546;19.254;2023-02-11T04:45:05;100918.00;;;20.52;39.16
74621;BME280;64861;47.546;19.254;2023-02-11T04:47:32;100918.84;;;20.52;39.15
74621;BME280;64861;47.546;19.254;2023-02-11T04:49:58;100920.31;;;20.56;39.11
74621;BME280;64861;47.546;19.254;2023-02-11T04:52:23;100912.69;;;20.52;39.08
74621;BME280;64861;47.546;19.254;2023-02-11T04:54:48;100915.09;;;20.55;39.02
74621;BME280;64861;47.546;19.254;2023-02-11T04:57:14;100910.13;;;20.50;39.14
74621;BME280;64861;47.546;19.254;2023-02-11T04:59:39;100913.72;;;20.49;39.23
74621;BME280;64861;47.546;19.254;2023-02-11T05:02:05;100903.25;;;20.48;39.26
74621;BME280;64861;47.546;19.254;2023-02-11T05:04:31;100911.31;;;20.46;39.16
74621;BME280;64861;47.546;19.254;2023-02-11T05:06:56;100913.88;;;20.48;39.15
74621;BME280;64861;47.546;19.254;2023-02-11T05:09:21;100918.00;;;20.52;39.03
74621;BME280;64861;47.546;19.254;2023-02-11T05:11:47;100924.16;;;20.52;39.00
74621;BME280;64861;47.546;19.254;2023-02-11T05:14:12;100924.88;;;20.54;39.01
74621;BME280;64861;47.546;19.254;2023-02-11T05:16:38;100913.53;;;20.52;39.09
74621;BME280;64861;47.546;19.254;2023-02-11T05:19:03;100919.31;;;20.57;38.92
74621;BME280;64861;47.546;19.254;2023-02-11T05:21:29;100923.19;;;20.53;39.03
74621;BME280;64861;47.546;19.254;2023-02-11T05:23:54;100922.56;;;20.50;39.03
74621;BME280;64861;47.546;19.254;2023-02-11T05:26:20;100926.31;;;20.47;39.08
74621;BME280;64861;47.546;19.254;2023-02-11T05:28:45;100922.56;;;20.50;39.04
74621;BME280;64861;47.546;19.254;2023-02-11T05:31:11;100915.22;;;20.53;38.85
74621;BME280;64861;47.546;19.254;2023-02-11T05:33:39;100914.72;;;20.48;39.11
74621;BME280;64861;47.546;19.254;2023-02-11T05:36:07;100905.56;;;20.52;38.88
74621;BME280;64861;47.546;19.254;2023-02-11T05:38:33;100903.97;;;20.50;39.13
74621;BME280;64861;47.546;19.254;2023-02-11T05:40:59;100906.00;;;20.46;39.22
74621;BME280;64861;47.546;19.254;2023-02-11T05:43:25;100908.66;;;20.46;39.00
74621;BME280;64861;47.546;19.254;2023-02-11T05:45:50;100889.00;;;20.37;39.15
74621;BME280;64861;47.546;19.254;2023-02-11T05:48:16;100892.63;;;20.48;38.94
74621;BME280;64861;47.546;19.254;2023-02-11T05:50:42;100902.06;;;20.52;38.88
74621;BME280;64861;47.546;19.254;2023-02-11T05:53:08;100905.16;;;20.46;39.01
74621;BME280;64861;47.546;19.254;2023-02-11T05:55:33;100897.19;;;20.46;38.92
74621;BME280;64861;47.546;19.254;2023-02-11T05:57:59;100904.09;;;20.48;38.90
74621;BME280;64861;47.546;19.254;2023-02-11T06:00:24;100895.13;;;20.49;38.82
74621;BME280;64861;47.546;19.254;2023-02-11T06:02:50;100898.56;;;20.51;39.05
74621;BME280;64861;47.546;19.254;2023-02-11T06:05:15;100896.00;;;20.50;39.03
74621;BME280;64861;47.546;19.254;2023-02-11T06:07:41;100898.78;;;20.48;38.74
74621;BME280;64861;47.546;19.254;2023-02-11T06:10:07;100902.91;;;20.52;38.87
74621;BME280;64861;47.546;19.254;2023-02-11T06:12:32;100901.44;;;20.48;38.98
74621;BME280;64861;47.546;19.254;2023-02-11T06:14:58;100909.69;;;20.56;38.97
74621;BME280;64861;47.546;19.254;2023-02-11T06:17:23;100902.16;;;20.50;38.80
74621;BME280;64861;47.546;19.254;2023-02-11T06:19:49;100901.44;;;20.48;39.06
74621;BME280;64861;47.546;19.254;2023-02-11T06:22:16;100889.13;;;20.47;38.97
74621;BME280;64861;47.546;19.254;2023-02-11T06:24:41;100889.97;;;20.48;39.01
74621;BME280;64861;47.546;19.254;2023-02-11T06:27:07;100886.22;;;20.50;38.92
74621;BME280;64861;47.546;19.254;2023-02-11T06:29:33;100887.94;;;20.51;38.72
74621;BME280;64861;47.546;19.254;2023-02-11T06:31:58;100888.66;;;20.53;38.98
74621;BME280;64861;47.546;19.254;2023-02-11T06:34:24;100884.31;;;20.52;38.90
74621;BME280;64861;47.546;19.254;2023-02-11T06:36:49;100880.56;;;20.55;38.73
74621;BME280;64861;47.546;19.254;2023-02-11T06:39:15;100885.03;;;20.54;38.72
74621;BME280;64861;47.546;19.254;2023-02-11T06:41:40;100891.44;;;20.52;38.66
74621;BME280;64861;47.546;19.254;2023-02-11T06:44:06;100879.13;;;20.51;38.70
74621;BME280;64861;47.546;19.254;2023-02-11T06:46:31;100887.44;;;20.57;38.79
74621;BME280;64861;47.546;19.254;2023-02-11T06:48:57;100882.13;;;20.57;38.79
74621;BME280;64861;47.546;19.254;2023-02-11T06:51:22;100884.56;;;20.60;38.65
74621;BME280;64861;47.546;19.254;2023-02-11T06:53:48;100889.03;;;20.60;38.60
74621;BME280;64861;47.546;19.254;2023-02-11T06:56:19;100884.06;;;20.55;38.77
74621;BME280;64861;47.546;19.254;2023-02-11T06:58:45;100878.63;;;20.57;38.68
74621;BME280;64861;47.546;19.254;2023-02-11T07:01:14;100873.69;;;20.63;38.69
74621;BME280;64861;47.546;19.254;2023-02-11T07:03:41;100871.38;;;20.59;38.68
74621;BME280;64861;47.546;19.254;2023-02-11T07:06:11;100878.41;;;20.60;38.64
74621;BME280;64861;47.546;19.254;2023-02-11T07:08:37;100889.28;;;20.57;38.68
74621;BME280;64861;47.546;19.254;2023-02-11T07:11:15;100869.81;;;20.45;38.65
74621;BME280;64861;47.546;19.254;2023-02-11T07:13:41;100878.41;;;20.60;38.69
74621;BME280;64861;47.546;19.254;2023-02-11T07:16:08;100879.47;;;20.57;38.76
74621;BME280;64861;47.546;19.254;2023-02-11T07:18:34;100887.56;;;20.56;38.67
74621;BME280;64861;47.546;19.254;2023-02-11T07:21:04;100890.94;;;20.58;38.74
74621;BME280;64861;47.546;19.254;2023-02-11T07:23:30;100883.94;;;20.57;38.73
74621;BME280;64861;47.546;19.254;2023-02-11T07:25:55;100878.25;;;20.61;38.74
74621;BME280;64861;47.546;19.254;2023-02-11T07:28:21;100887.56;;;20.67;38.63
74621;BME280;64861;47.546;19.254;2023-02-11T07:30:46;100882.44;;;20.75;38.37
74621;BME280;64861;47.546;19.254;2023-02-11T07:33:11;100886.81;;;20.65;38.45
74621;BME280;64861;47.546;19.254;2023-02-11T07:35:37;100885.00;;;20.77;38.46
74621;BME280;64861;47.546;19.254;2023-02-11T07:38:03;100881.13;;;20.81;38.24
74621;BME280;64861;47.546;19.254;2023-02-11T07:40:28;100867.59;;;20.73;38.44
74621;BME280;64861;47.546;19.254;2023-02-11T07:42:55;100861.34;;;20.74;38.27
74621;BME280;64861;47.546;19.254;2023-02-11T07:45:21;100865.28;;;20.79;38.29
74621;BME280;64861;47.546;19.254;2023-02-11T07:47:46;100867.47;;;20.74;38.41
74621;BME280;64861;47.546;19.254;2023-02-11T07:50:12;100862.41;;;20.71;38.28
74621;BME280;64861;47.546;19.254;2023-02-11T07:52:37;100859.38;;;20.76;38.41
74621;BME280;64861;47.546;19.254;2023-02-11T07:55:03;100867.34;;;20.76;38.28
74621;BME280;64861;47.546;19.254;2023-02-11T07:57:28;100853.59;;;20.71;38.24
74621;BME280;64861;47.546;19.254;2023-02-11T07:59:54;100855.44;;;20.70;38.34
74621;BME280;64861;47.546;19.254;2023-02-11T08:02:19;100855.78;;;20.77;38.24
74621;BME280;64861;47.546;19.254;2023-02-11T08:04:45;100847.47;;;20.70;38.58
74621;BME280;64861;47.546;19.254;2023-02-11T08:07:15;100851.78;;;20.71;38.42
74621;BME280;64861;47.546;19.254;2023-02-11T08:09:40;100855.88;;;20.75;38.32
74621;BME280;64861;47.546;19.254;2023-02-11T08:12:06;100851.28;;;20.77;38.44
74621;BME280;64861;47.546;19.254;2023-02-11T08:14:31;100845.72;;;20.80;38.39
74621;BME280;64861;47.546;19.254;2023-02-11T08:16:57;100847.41;;;20.81;38.15
74621;BME280;64861;47.546;19.254;2023-02-11T08:19:22;100860.44;;;20.84;38.17
74621;BME280;64861;47.546;19.254;2023-02-11T08:21:48;100863.09;;;20.84;38.19
74621;BME280;64861;47.546;19.254;2023-02-11T08:24:13;100862.59;;;20.91;38.04
74621;BME280;64861;47.546;19.254;2023-02-11T08:26:39;100857.66;;;20.86;38.03
74621;BME280;64861;47.546;19.254;2023-02-11T08:29:10;100861.53;;;20.82;38.41
74621;BME280;64861;47.546;19.254;2023-02-11T08:31:39;100863.84;;;20.75;38.20
74621;BME280;64861;47.546;19.254;2023-02-11T08:34:05;100859.38;;;20.76;38.32
74621;BME280;64861;47.546;19.254;2023-02-11T08:36:33;100861.69;;;20.80;38.17
74621;BME280;64861;47.546;19.254;2023-02-11T08:39:01;100849.00;;;20.73;38.08
74621;BME280;64861;47.546;19.254;2023-02-11T08:41:28;100857.44;;;20.78;38.25
74621;BME280;64861;47.546;19.254;2023-02-11T08:43:53;100867.09;;;20.79;38.04
74621;BME280;64861;47.546;19.254;2023-02-11T08:46:20;100861.19;;;20.86;38.07
74621;BME280;64861;47.546;19.254;2023-02-11T08:48:46;100854.75;;;20.89;38.06
74621;BME280;64861;47.546;19.254;2023-02-11T08:51:23;100853.28;;;20.96;37.95
74621;BME280;64861;47.546;19.254;2023-02-11T08:53:49;100848.44;;;21.01;37.89
74621;BME280;64861;47.546;19.254;2023-02-11T08:56:16;100861.47;;;21.04;37.73
74621;BME280;64861;47.546;19.254;2023-02-11T08:58:42;100858.88;;;21.14;37.70
74621;BME280;64861;47.546;19.254;2023-02-11T09:01:24;100853.97;;;21.09;37.62
74621;BME280;64861;47.546;19.254;2023-02-11T09:03:50;100852.16;;;21.10;37.36
74621;BME280;64861;47.546;19.254;2023-02-11T09:06:16;100846.91;;;21.20;37.34
74621;BME280;64861;47.546;19.254;2023-02-11T09:08:45;100846.34;;;21.37;37.25
74621;BME280;64861;47.546;19.254;2023-02-11T09:11:12;100841.63;;;21.41;37.18
74621;BME280;64861;47.546;19.254;2023-02-11T09:13:39;100837.88;;;21.43;37.12
74621;BME280;64861;47.546;19.254;2023-02-11T09:16:06;100840.34;;;21.56;36.95
74621;BME280;64861;47.546;19.254;2023-02-11T09:18:31;100837.59;;;21.67;36.57
74621;BME280;64861;47.546;19.254;2023-02-11T09:21:05;100828.66;;;21.78;36.44
74621;BME280;64861;47.546;19.254;2023-02-11T09:23:32;100831.00;;;21.92;36.18
74621;BME280;64861;47.546;19.254;2023-02-11T09:26:04;100831.72;;;22.04;36.07
74621;BME280;64861;47.546;19.254;2023-02-11T09:28:29;100825.97;;;21.99;35.88
74621;BME280;64861;47.546;19.254;2023-02-11T09:30:55;100823.88;;;21.72;36.35
74621;BME280;64861;47.546;19.254;2023-02-11T09:33:20;100817.81;;;21.60;36.63
74621;BME280;64861;47.546;19.254;2023-02-11T09:35:46;100811.38;;;21.63;36.66
74621;BME280;64861;47.546;19.254;2023-02-11T09:38:11;100814.16;;;21.92;35.97
74621;BME280;64861;47.546;19.254;2023-02-11T09:40:44;100813.66;;;22.08;35.62
74621;BME280;64861;47.546;19.254;2023-02-11T09:43:16;100809.25;;;21.87;35.86
74621;BME280;64861;47.546;19.254;2023-02-11T09:45:45;100814.75;;;21.95;36.08
74621;BME280;64861;47.546;19.254;2023-02-11T09:48:18;100818.72;;;22.11;35.65
74621;BME280;64861;47.546;19.254;2023-02-11T09:53:23;100806.41;;;22.10;35.97
74621;BME280;64861;47.546;19.254;2023-02-11T09:55:54;100806.75;;;22.26;35.35
74621;BME280;64861;47.546;19.254;2023-02-11T09:58:32;100798.31;;;22.21;35.55
74621;BME280;64861;47.546;19.254;2023-02-11T10:06:50;100790.13;;;22.03;35.69
74621;BME280;64861;47.546;19.254;2023-02-11T10:22:29;100785.25;;;21.77;36.32
74621;BME280;64861;47.546;19.254;2023-02-11T10:24:57;100788.75;;;21.78;36.36
74621;BME280;64861;47.546;19.254;2023-02-11T10:27:31;100788.41;;;21.92;36.13
74621;BME280;64861;47.546;19.254;2023-02-11T10:30:15;100769.66;;;22.03;36.02
74621;BME280;64861;47.546;19.254;2023-02-11T10:35:17;100764.75;;;22.97;34.21
74621;BME280;64861;47.546;19.254;2023-02-11T10:37:44;100755.41;;;23.31;33.55
74621;BME280;64861;47.546;19.254;2023-02-11T10:40:19;100759.44;;;23.54;33.39
74621;BME280;64861;47.546;19.254;2023-02-11T10:42:48;100755.50;;;23.58;33.17
74621;BME280;64861;47.546;19.254;2023-02-11T10:45:31;100750.34;;;23.84;32.81
74621;BME280;64861;47.546;19.254;2023-02-11T10:47:57;100738.19;;;23.62;32.95
74621;BME280;64861;47.546;19.254;2023-02-11T10:50:29;100728.69;;;23.50;33.14
74621;BME280;64861;47.546;19.254;2023-02-11T10:53:17;100723.69;;;23.28;33.60
74621;BME280;64861;47.546;19.254;2023-02-11T10:55:55;100733.97;;;23.23;33.70
74621;BME280;64861;47.546;19.254;2023-02-11T10:58:27;100731.59;;;23.57;33.27
74621;BME280;64861;47.546;19.254;2023-02-11T11:00:57;100724.31;;;24.14;32.32
74621;BME280;64861;47.546;19.254;2023-02-11T11:03:32;100713.06;;;24.10;32.32
74621;BME280;64861;47.546;19.254;2023-02-11T11:06:05;100713.34;;;23.25;33.67
74621;BME280;64861;47.546;19.254;2023-02-11T11:08:48;100713.25;;;22.58;34.72
74621;BME280;64861;47.546;19.254;2023-02-11T11:11:19;100710.44;;;22.21;35.23
74621;BME280;64861;47.546;19.254;2023-02-11T11:16:21;100717.47;;;22.22;35.43
74621;BME280;64861;47.546;19.254;2023-02-11T11:18:50;100706.31;;;23.24;33.81
74621;BME280;64861;47.546;19.254;2023-02-11T11:21:27;100701.09;;;23.69;33.13
74621;BME280;64861;47.546;19.254;2023-02-11T11:23:58;100692.81;;;23.35;33.65
74621;BME280;64861;47.546;19.254;2023-02-11T11:26:27;100677.34;;;22.82;34.50
74621;BME280;64861;47.546;19.254;2023-02-11T11:28:57;100670.22;;;23.29;33.63
74621;BME280;64861;47.546;19.254;2023-02-11T11:31:35;100662.03;;;23.96;32.67
74621;BME280;64861;47.546;19.254;2023-02-11T11:36:54;100674.09;;;23.44;33.42
74621;BME280;64861;47.546;19.254;2023-02-11T11:39:30;100676.16;;;23.13;33.99
74621;BME280;64861;47.546;19.254;2023-02-11T11:42:46;100661.34;;;22.82;34.62
74621;BME280;64861;47.546;19.254;2023-02-11T11:44:56;100653.22;;;22.64;34.80
74621;BME280;64861;47.546;19.254;2023-02-11T11:47:30;100654.78;;;22.27;35.53
74621;BME280;64861;47.546;19.254;2023-02-11T11:53:12;100649.41;;;22.08;35.77
74621;BME280;64861;47.546;19.254;2023-02-11T11:55:44;100648.59;;;22.08;36.04
74621;BME280;64861;47.546;19.254;2023-02-11T11:58:19;100642.72;;;22.14;35.83
74621;BME280;64861;47.546;19.254;2023-02-11T12:03:46;100634.31;;;22.09;35.85
74621;BME280;64861;47.546;19.254;2023-02-11T12:33:14;100561.16;;;21.93;36.38
74621;BME280;64861;47.546;19.254;2023-02-11T12:38:20;100579.63;;;21.85;36.50
74621;BME280;64861;47.546;19.254;2023-02-11T12:41:10;100573.06;;;21.79;36.56
74621;BME280;64861;47.546;19.254;2023-02-11T12:43:41;100557.47;;;21.65;36.61
74621;BME280;64861;47.546;19.254;2023-02-11T12:49:04;100572.06;;;21.71;36.89
74621;BME280;64861;47.546;19.254;2023-02-11T12:57:01;100556.38;;;21.68;37.00
74621;BME280;64861;47.546;19.254;2023-02-11T13:02:32;100544.06;;;21.67;37.15
74621;BME280;64861;47.546;19.254;2023-02-11T13:05:09;100554.56;;;21.68;36.91
74621;BME280;64861;47.546;19.254;2023-02-11T13:07:43;100549.50;;;21.65;36.89
74621;BME280;64861;47.546;19.254;2023-02-11T13:10:26;100539.84;;;21.64;36.88
74621;BME280;64861;47.546;19.254;2023-02-11T13:12:54;100533.41;;;21.57;37.20
74621;BME280;64861;47.546;19.254;2023-02-11T13:15:42;100532.84;;;21.53;37.25
74621;BME280;64861;47.546;19.254;2023-02-11T13:23:54;100524.44;;;21.48;37.06
74621;BME280;64861;47.546;19.254;2023-02-11T13:26:24;100512.56;;;21.52;37.07
74621;BME280;64861;47.546;19.254;2023-02-11T13:29:28;100500.94;;;21.53;37.18
74621;BME280;64861;47.546;19.254;2023-02-11T13:32:11;100509.19;;;21.50;37.36
74621;BME280;64861;47.546;19.254;2023-02-11T13:42:22;100493.06;;;21.52;37.26
74621;BME280;64861;47.546;19.254;2023-02-11T13:44:48;100495.16;;;21.48;37.36
74621;BME280;64861;47.546;19.254;2023-02-11T13:47:33;100502.19;;;21.49;37.15
74621;BME280;64861;47.546;19.254;2023-02-11T13:50:04;100490.97;;;21.55;37.01
74621;BME280;64861;47.546;19.254;2023-02-11T13:52:33;100495.03;;;21.50;37.14
74621;BME280;64861;47.546;19.254;2023-02-11T13:55:08;100495.88;;;21.50;37.21
74621;BME280;64861;47.546;19.254;2023-02-11T13:57:40;100501.75;;;21.44;37.48
74621;BME280;64861;47.546;19.254;2023-02-11T14:11:52;100496.31;;;21.46;37.43
74621;BME280;64861;47.546;19.254;2023-02-11T14:14:32;100493.06;;;21.42;37.35
74621;BME280;64861;47.546;19.254;2023-02-11T14:22:04;100477.69;;;21.36;37.62
74621;BME280;64861;47.546;19.254;2023-02-11T14:32:21;100518.25;;;21.38;37.47
74621;BME280;64861;47.546;19.254;2023-02-11T14:40:30;100513.31;;;21.33;37.77
74621;BME280;64861;47.546;19.254;2023-02-11T14:43:15;100519.38;;;21.35;37.43
74621;BME280;64861;47.546;19.254;2023-02-11T14:45:45;100519.03;;;21.29;37.74
74621;BME280;64861;47.546;19.254;2023-02-11T14:48:17;100511.22;;;21.27;37.43
74621;BME280;64861;47.546;19.254;2023-02-11T14:50:56;100512.50;;;21.33;37.63
74621;BME280;64861;47.546;19.254;2023-02-11T14:53:24;100512.03;;;21.28;37.60
74621;BME280;64861;47.546;19.254;2023-02-11T14:55:53;100508.56;;;21.27;37.75
74621;BME280;64861;47.546;19.254;2023-02-11T14:58:22;100506.72;;;21.28;37.68
74621;BME280;64861;47.546;19.254;2023-02-11T15:03:28;100474.53;;;21.21;37.70
74621;BME280;64861;47.546;19.254;2023-02-11T15:05:57;100470.22;;;21.30;37.50
74621;BME280;64861;47.546;19.254;2023-02-11T15:08:23;100464.06;;;21.29;37.48
74621;BME280;64861;47.546;19.254;2023-02-11T15:10:49;100461.53;;;21.28;37.79
74621;BME280;64861;47.546;19.254;2023-02-11T15:13:18;100453.81;;;21.25;37.70
74621;BME280;64861;47.546;19.254;2023-02-11T15:15:44;100447.81;;;21.23;37.81
74621;BME280;64861;47.546;19.254;2023-02-11T15:18:20;100456.63;;;21.23;37.60
74621;BME280;64861;47.546;19.254;2023-02-11T15:20:48;100455.91;;;21.21;37.62
74621;BME280;64861;47.546;19.254;2023-02-11T15:23:21;100458.31;;;21.24;37.61
74621;BME280;64861;47.546;19.254;2023-02-11T15:25:47;100469.50;;;21.18;37.80
74621;BME280;64861;47.546;19.254;2023-02-11T15:28:26;100461.38;;;21.20;37.68
74621;BME280;64861;47.546;19.254;2023-02-11T15:31:15;100460.94;;;21.15;37.72
74621;BME280;64861;47.546;19.254;2023-02-11T15:33:42;100463.59;;;21.15;37.79
74621;BME280;64861;47.546;19.254;2023-02-11T15:36:11;100459.84;;;21.17;37.84